Time;durP1;ratioP1;P1;durP2;ratioP2;P2;SDS_P1;SDS_P2;PMS_P1;PMS_P2;Temp;Humidity;BMP_temperature;BMP_pressure;BME280_temperature;BME280_humidity;BME280_pressure;Samples;Min_cycle;Max_cycle;Signal;HPM_P1;HPM_P2
2022/03/29 00:01:26;;;;;;;;;;;20.90;40.10;;;;;;5053296;28;20268;-39
2022/03/29 00:03:53;;;;;;;;;;;20.90;40.10;;;;;;5053287;28;20012;-39
2022/03/29 00:06:20;;;;;;;;;;;20.90;40.10;;;;;;5053540;28;20339;-39
2022/03/29 00:08:46;;;;;;;;;;;20.90;40.10;;;;;;5056966;28;19925;-39
2022/03/29 00:11:14;;;;;;;;;;;20.90;40.10;;;;;;5056559;28;19983;-40
2022/03/29 00:13:40;;;;;;;;;;;20.90;40.10;;;;;;5056608;28;19929;-40
2022/03/29 00:16:07;;;;;;;;;;;20.90;40.10;;;;;;5056521;28;19971;-45
2022/03/29 00:18:35;;;;;;;;;;;20.90;40.10;;;;;;5056794;28;20004;-41
2022/03/29 00:21:01;;;;;;;;;;;20.90;40.10;;;;;;5055837;28;19925;-39
2022/03/29 00:23:28;;;;;;;;;;;20.90;40.10;;;;;;5056788;28;19932;-44
2022/03/29 00:25:55;;;;;;;;;;;20.90;40.10;;;;;;5056362;28;20384;-42
2022/03/29 00:28:22;;;;;;;;;;;20.90;40.10;;;;;;5056234;28;19960;-46
2022/03/29 00:30:49;;;;;;;;;;;20.90;40.10;;;;;;5056609;28;19952;-39
2022/03/29 00:33:16;;;;;;;;;;;20.90;40.10;;;;;;5056134;28;19925;-39
2022/03/29 00:35:43;;;;;;;;;;;20.90;40.10;;;;;;5059153;28;19929;-39
2022/03/29 00:38:10;;;;;;;;;;;20.90;40.10;;;;;;5076170;28;20426;-45
2022/03/29 00:40:37;;;;;;;;;;;20.90;40.10;;;;;;5076074;28;19950;-39
2022/03/29 00:43:05;;;;;;;;;;;20.90;40.10;;;;;;5076060;28;19981;-40
2022/03/29 00:45:32;;;;;;;;;;;20.90;40.10;;;;;;5076027;28;19932;-39
2022/03/29 00:48:00;;;;;;;;;;;20.90;40.10;;;;;;5058308;28;20372;-41
2022/03/29 00:50:27;;;;;;;;;;;20.90;40.20;;;;;;5074216;28;19973;-40
2022/03/29 00:52:54;;;;;;;;;;;20.90;40.10;;;;;;5076457;28;19978;-40
2022/03/29 00:55:21;;;;;;;;;;;20.90;40.20;;;;;;5076161;28;20277;-45
2022/03/29 00:57:49;;;;;;;;;;;20.90;40.10;;;;;;5075809;28;20392;-40
2022/03/29 01:00:16;;;;;;;;;;;20.90;40.20;;;;;;5075612;28;19960;-40
2022/03/29 01:02:44;;;;;;;;;;;20.90;40.20;;;;;;5058019;28;20493;-44
2022/03/29 01:05:12;;;;;;;;;;;20.90;40.20;;;;;;5075717;28;20379;-38
2022/03/29 01:07:39;;;;;;;;;;;20.90;40.20;;;;;;5074485;28;20335;-39
2022/03/29 01:10:07;;;;;;;;;;;20.90;40.10;;;;;;5075529;28;19975;-41
2022/03/29 01:12:36;;;;;;;;;;;20.90;40.20;;;;;;5075720;28;19928;-41
2022/03/29 01:15:05;;;;;;;;;;;20.90;40.10;;;;;;5075799;28;20338;-40
2022/03/29 01:17:38;;;;;;;;;;;20.90;40.20;;;;;;5075649;28;20269;-40
2022/03/29 01:20:06;;;;;;;;;;;20.90;40.20;;;;;;5075715;28;19924;-39
2022/03/29 01:22:34;;;;;;;;;;;20.90;40.20;;;;;;5058634;28;19986;-40
2022/03/29 01:25:02;;;;;;;;;;;20.90;40.20;;;;;;5055272;28;19925;-42
2022/03/29 01:27:31;;;;;;;;;;;20.90;40.20;;;;;;5055208;28;20324;-41
2022/03/29 01:29:59;;;;;;;;;;;20.90;40.20;;;;;;5055345;28;20339;-39
2022/03/29 01:32:29;;;;;;;;;;;20.90;40.20;;;;;;5055051;28;19925;-39
2022/03/29 01:34:57;;;;;;;;;;;20.90;40.20;;;;;;5055095;28;19967;-39
2022/03/29 01:37:25;;;;;;;;;;;20.90;40.20;;;;;;5054320;28;19936;-39
2022/03/29 01:39:52;;;;;;;;;;;20.90;40.20;;;;;;5055314;28;19929;-39
2022/03/29 01:42:19;;;;;;;;;;;20.90;40.20;;;;;;5055250;28;20335;-38
2022/03/29 01:44:46;;;;;;;;;;;20.90;40.10;;;;;;5055163;28;19925;-41
2022/03/29 01:47:18;;;;;;;;;;;20.90;40.20;;;;;;5054859;28;19939;-40
2022/03/29 01:49:45;;;;;;;;;;;20.90;40.20;;;;;;5055151;28;19924;-39
2022/03/29 01:52:12;;;;;;;;;;;20.90;40.20;;;;;;5062970;28;19924;-39
2022/03/29 01:54:39;;;;;;;;;;;20.90;40.20;;;;;;5074679;28;19924;-39
2022/03/29 01:57:06;;;;;;;;;;;20.90;40.20;;;;;;5074594;28;20437;-39
2022/03/29 02:02:19;;;;;;;;;;;20.90;40.20;;;;;;5074569;28;19925;-39
2022/03/29 02:04:46;;;;;;;;;;;20.80;40.10;;;;;;5074467;28;19930;-41
2022/03/29 02:07:13;;;;;;;;;;;20.90;40.20;;;;;;5064766;28;19925;-40
2022/03/29 02:09:40;;;;;;;;;;;20.80;40.10;;;;;;5037082;28;19924;-38
2022/03/29 02:12:07;;;;;;;;;;;20.80;40.10;;;;;;5054295;28;20388;-41
2022/03/29 02:14:34;;;;;;;;;;;20.80;40.10;;;;;;5054635;28;20331;-39
2022/03/29 02:17:02;;;;;;;;;;;20.80;40.10;;;;;;5054242;28;19931;-39
2022/03/29 02:19:29;;;;;;;;;;;20.80;40.10;;;;;;5054527;28;19947;-40
2022/03/29 02:21:56;;;;;;;;;;;20.80;40.10;;;;;;5053222;28;20357;-39
2022/03/29 02:24:23;;;;;;;;;;;20.80;40.10;;;;;;5054441;28;20293;-39
2022/03/29 02:26:50;;;;;;;;;;;20.80;40.20;;;;;;5054410;28;19994;-38
2022/03/29 02:29:18;;;;;;;;;;;20.80;40.20;;;;;;5051662;28;21583;-39
2022/03/29 02:31:45;;;;;;;;;;;20.80;40.10;;;;;;5054220;28;19925;-40
2022/03/29 02:34:12;;;;;;;;;;;20.80;40.20;;;;;;5053953;28;19928;-40
2022/03/29 02:36:39;;;;;;;;;;;20.80;40.10;;;;;;5053916;28;19928;-39
2022/03/29 02:39:06;;;;;;;;;;;20.80;40.20;;;;;;5074170;28;19982;-39
2022/03/29 02:41:33;;;;;;;;;;;20.80;40.20;;;;;;5074139;28;20291;-41
2022/03/29 02:44:00;;;;;;;;;;;20.80;40.20;;;;;;5074134;28;20269;-43
2022/03/29 02:46:27;;;;;;;;;;;20.80;40.10;;;;;;5073811;28;19954;-42
2022/03/29 02:48:54;;;;;;;;;;;20.80;40.20;;;;;;5074073;28;19928;-46
2022/03/29 02:51:21;;;;;;;;;;;20.80;40.20;;;;;;5073786;28;19931;-43
2022/03/29 02:53:48;;;;;;;;;;;20.80;40.20;;;;;;5071891;28;19924;-41
2022/03/29 02:56:15;;;;;;;;;;;20.80;40.20;;;;;;5074033;28;19924;-44
2022/03/29 02:58:42;;;;;;;;;;;20.80;40.20;;;;;;5073521;28;19924;-42
2022/03/29 03:01:09;;;;;;;;;;;20.80;40.20;;;;;;5073593;28;19924;-41
2022/03/29 03:03:37;;;;;;;;;;;20.80;40.20;;;;;;5073901;28;19928;-43
2022/03/29 03:06:04;;;;;;;;;;;20.80;40.20;;;;;;5073868;28;19947;-43
2022/03/29 03:08:31;;;;;;;;;;;20.80;40.20;;;;;;5072383;28;19925;-43
2022/03/29 03:10:57;;;;;;;;;;;20.80;40.20;;;;;;5073790;28;19929;-45
2022/03/29 03:13:25;;;;;;;;;;;20.80;40.20;;;;;;5073388;28;19928;-43
2022/03/29 03:15:52;;;;;;;;;;;20.80;40.10;;;;;;5073790;28;19928;-47
2022/03/29 03:18:19;;;;;;;;;;;20.80;40.20;;;;;;5073391;28;19924;-44
2022/03/29 03:20:46;;;;;;;;;;;20.80;40.10;;;;;;5072982;28;19924;-42
2022/03/29 03:23:13;;;;;;;;;;;20.80;40.10;;;;;;5072043;28;19924;-47
2022/03/29 03:25:40;;;;;;;;;;;20.80;40.10;;;;;;5073678;28;19986;-44
2022/03/29 03:28:07;;;;;;;;;;;20.80;40.20;;;;;;5073241;28;19932;-40
2022/03/29 03:30:34;;;;;;;;;;;20.80;40.20;;;;;;5073669;28;20344;-40
2022/03/29 03:33:01;;;;;;;;;;;20.80;40.20;;;;;;5055445;28;20368;-44
2022/03/29 03:35:29;;;;;;;;;;;20.80;40.20;;;;;;5073273;28;19954;-41
2022/03/29 03:37:56;;;;;;;;;;;20.80;40.20;;;;;;5071767;28;19978;-42
2022/03/29 03:40:26;;;;;;;;;;;20.80;40.20;;;;;;5073545;28;19929;-39
2022/03/29 03:42:53;;;;;;;;;;;20.80;40.20;;;;;;5058983;28;20299;-40
2022/03/29 03:45:20;;;;;;;;;;;20.80;40.20;;;;;;5077126;28;19955;-40
2022/03/29 03:47:47;;;;;;;;;;;20.80;40.20;;;;;;5078036;28;19925;-42
2022/03/29 03:50:14;;;;;;;;;;;20.80;40.20;;;;;;5077062;28;19925;-40
2022/03/29 03:52:41;;;;;;;;;;;20.80;40.20;;;;;;5075255;28;20417;-41
2022/03/29 03:55:08;;;;;;;;;;;20.80;40.20;;;;;;5076938;28;19925;-39
2022/03/29 03:57:35;;;;;;;;;;;20.80;40.20;;;;;;5077210;28;19951;-40
2022/03/29 04:00:03;;;;;;;;;;;20.80;40.20;;;;;;5076792;28;19974;-41
2022/03/29 04:02:30;;;;;;;;;;;20.80;40.20;;;;;;5076802;28;19928;-38
2022/03/29 04:04:57;;;;;;;;;;;20.80;40.20;;;;;;5076793;28;19968;-39
2022/03/29 04:07:24;;;;;;;;;;;20.80;40.20;;;;;;5076937;28;19956;-40
2022/03/29 04:09:51;;;;;;;;;;;20.80;40.20;;;;;;5057069;28;19924;-39
2022/03/29 04:12:19;;;;;;;;;;;20.80;40.20;;;;;;5056853;28;19925;-41
2022/03/29 04:14:46;;;;;;;;;;;20.80;40.20;;;;;;5056868;28;20273;-39
2022/03/29 04:17:13;;;;;;;;;;;20.80;40.20;;;;;;5056532;28;19929;-39
2022/03/29 04:19:40;;;;;;;;;;;20.80;40.20;;;;;;5056501;28;20040;-40
2022/03/29 04:22:07;;;;;;;;;;;20.80;40.20;;;;;;5056214;28;19929;-39
2022/03/29 04:24:34;;;;;;;;;;;20.80;40.30;;;;;;5071298;28;19938;-39
2022/03/29 04:27:01;;;;;;;;;;;20.80;40.20;;;;;;5076376;28;19975;-41
2022/03/29 04:29:28;;;;;;;;;;;20.80;40.30;;;;;;5076189;28;19931;-39
2022/03/29 04:31:55;;;;;;;;;;;20.80;40.20;;;;;;5076262;28;19928;-39
2022/03/29 04:34:22;;;;;;;;;;;20.80;40.20;;;;;;5076194;28;20380;-39
2022/03/29 04:36:49;;;;;;;;;;;20.80;40.20;;;;;;5076459;28;19925;-41
2022/03/29 04:39:16;;;;;;;;;;;20.80;40.20;;;;;;5074708;28;19932;-40
2022/03/29 04:41:43;;;;;;;;;;;20.80;40.20;;;;;;5076391;28;19978;-40
2022/03/29 04:44:30;;;;;;;;;;;20.80;40.20;;;;;;5076605;28;19946;-39
2022/03/29 04:46:57;;;;;;;;;;;20.80;40.20;;;;;;5076289;28;19978;-40
2022/03/29 04:49:24;;;;;;;;;;;20.80;40.20;;;;;;5076007;28;19928;-39
2022/03/29 04:51:51;;;;;;;;;;;20.80;40.20;;;;;;5075686;28;19931;-40
2022/03/29 04:54:18;;;;;;;;;;;20.80;40.20;;;;;;5074417;28;19985;-39
2022/03/29 04:56:45;;;;;;;;;;;20.80;40.20;;;;;;5075820;28;20404;-40
2022/03/29 04:59:12;;;;;;;;;;;20.80;40.20;;;;;;5075698;28;19979;-39
2022/03/29 05:01:39;;;;;;;;;;;20.80;40.20;;;;;;5075688;28;19924;-42
2022/03/29 05:04:09;;;;;;;;;;;20.80;40.20;;;;;;5075992;28;19928;-38
2022/03/29 05:06:36;;;;;;;;;;;20.80;40.20;;;;;;5075588;28;19925;-40
2022/03/29 05:09:03;;;;;;;;;;;20.80;40.20;;;;;;5074070;28;19925;-42
2022/03/29 05:11:30;;;;;;;;;;;20.80;40.20;;;;;;5076655;28;19932;-39
2022/03/29 05:13:57;;;;;;;;;;;20.80;40.20;;;;;;5075739;28;19924;-38
2022/03/29 05:16:24;;;;;;;;;;;20.80;40.20;;;;;;5075759;28;19956;-39
2022/03/29 05:18:51;;;;;;;;;;;20.80;40.80;;;;;;5075690;28;19929;-40
2022/03/29 05:21:18;;;;;;;;;;;20.80;40.20;;;;;;5075047;28;19924;-39
2022/03/29 05:23:45;;;;;;;;;;;20.80;40.20;;;;;;5073466;28;20404;-38
2022/03/29 05:26:12;;;;;;;;;;;20.80;40.20;;;;;;5075543;28;19929;-42
2022/03/29 05:28:39;;;;;;;;;;;20.80;40.20;;;;;;5075090;28;19924;-41
2022/03/29 05:31:06;;;;;;;;;;;20.80;40.10;;;;;;5075098;28;20414;-44
2022/03/29 05:33:33;;;;;;;;;;;20.80;40.10;;;;;;5075340;28;20041;-39
2022/03/29 05:36:01;;;;;;;;;;;20.80;40.10;;;;;;5075389;28;19986;-41
2022/03/29 05:38:28;;;;;;;;;;;20.80;40.10;;;;;;5073954;28;19925;-41
2022/03/29 05:40:55;;;;;;;;;;;20.80;40.10;;;;;;5037372;28;20407;-40
2022/03/29 05:43:22;;;;;;;;;;;20.80;40.00;;;;;;5054937;28;19925;-39
2022/03/29 05:48:51;;;;;;;;;;;20.80;40.00;;;;;;5054905;28;19978;-39
2022/03/29 05:48:51;;;;;;;;;;;20.80;40.00;;;;;;5054849;28;19925;-39
2022/03/29 05:51:24;;;;;;;;;;;20.90;40.10;;;;;;5054649;28;19925;-40
2022/03/29 05:53:53;;;;;;;;;;;20.90;40.00;;;;;;5054109;28;20388;-40
2022/03/29 05:56:20;;;;;;;;;;;20.90;40.00;;;;;;5054694;28;19971;-39
2022/03/29 05:58:47;;;;;;;;;;;20.90;40.00;;;;;;5054454;28;19928;-42
2022/03/29 06:01:14;;;;;;;;;;;20.90;40.00;;;;;;5054833;28;19968;-43
2022/03/29 06:03:42;;;;;;;;;;;20.90;40.00;;;;;;5053844;28;19932;-45
2022/03/29 06:06:09;;;;;;;;;;;20.90;39.90;;;;;;5054421;28;19924;-43
2022/03/29 06:08:38;;;;;;;;;;;20.90;39.90;;;;;;5054653;28;19936;-45
2022/03/29 06:11:05;;;;;;;;;;;20.90;39.90;;;;;;5072738;28;20360;-40
2022/03/29 06:13:34;;;;;;;;;;;20.90;39.80;;;;;;5074517;28;19924;-42
2022/03/29 06:16:02;;;;;;;;;;;20.90;39.80;;;;;;5074257;28;19929;-39
2022/03/29 06:18:30;;;;;;;;;;;21.00;39.90;;;;;;5074322;28;19926;-43
2022/03/29 06:20:58;;;;;;;;;;;21.00;39.90;;;;;;5074499;28;19978;-43
2022/03/29 06:23:25;;;;;;;;;;;21.00;39.80;;;;;;5056876;28;19967;-40
2022/03/29 06:25:54;;;;;;;;;;;21.00;39.80;;;;;;5057217;28;20388;-47
2022/03/29 06:28:21;;;;;;;;;;;21.00;39.70;;;;;;5054107;28;19925;-41
2022/03/29 06:30:48;;;;;;;;;;;21.00;39.70;;;;;;5054301;28;19925;-44
2022/03/29 06:33:16;;;;;;;;;;;21.00;39.70;;;;;;5054185;28;19929;-43
2022/03/29 06:35:43;;;;;;;;;;;21.10;39.80;;;;;;5054165;28;20020;-42
2022/03/29 06:38:10;;;;;;;;;;;21.10;39.70;;;;;;5053818;28;19936;-40
2022/03/29 06:40:37;;;;;;;;;;;21.10;39.70;;;;;;5065438;28;19924;-40
2022/03/29 06:43:04;;;;;;;;;;;21.10;39.70;;;;;;5074152;28;19978;-44
2022/03/29 06:45:31;;;;;;;;;;;21.10;39.70;;;;;;5074126;28;20295;-42
2022/03/29 06:47:58;;;;;;;;;;;21.10;39.60;;;;;;5074097;28;20299;-39
2022/03/29 06:50:26;;;;;;;;;;;21.10;39.50;;;;;;5074076;28;19925;-40
2022/03/29 06:52:54;;;;;;;;;;;21.20;39.60;;;;;;5073934;28;20380;-39
2022/03/29 06:55:27;;;;;;;;;;;21.20;39.60;;;;;;5072691;28;19978;-40
2022/03/29 06:57:54;;;;;;;;;;;21.20;39.50;;;;;;5073544;28;19925;-41
2022/03/29 07:00:21;;;;;;;;;;;21.20;39.50;;;;;;5073609;28;19925;-42
2022/03/29 07:02:49;;;;;;;;;;;21.20;39.40;;;;;;5073893;28;19924;-41
2022/03/29 07:05:16;;;;;;;;;;;21.20;39.40;;;;;;5073576;28;19981;-44
2022/03/29 07:07:43;;;;;;;;;;;21.20;39.40;;;;;;5073534;28;19924;-41
2022/03/29 07:12:57;;;;;;;;;;;21.30;39.40;;;;;;5073455;28;19925;-47
2022/03/29 07:15:25;;;;;;;;;;;21.30;39.40;;;;;;5073597;28;19970;-40
2022/03/29 07:17:53;;;;;;;;;;;21.30;39.40;;;;;;5073740;28;19974;-42
2022/03/29 07:20:21;;;;;;;;;;;21.30;39.40;;;;;;5073369;28;19924;-39
2022/03/29 07:22:49;;;;;;;;;;;21.30;39.30;;;;;;5073013;28;20338;-40
2022/03/29 07:25:18;;;;;;;;;;;21.30;39.30;;;;;;5072392;28;20338;-42
2022/03/29 07:27:45;;;;;;;;;;;21.30;39.30;;;;;;5073347;28;19974;-41
2022/03/29 07:30:12;;;;;;;;;;;21.30;39.20;;;;;;5073547;28;20334;-46
2022/03/29 07:33:06;;;;;;;;;;;21.30;39.20;;;;;;5073287;28;20372;-43
2022/03/29 07:35:33;;;;;;;;;;;21.40;39.30;;;;;;5070695;28;19930;-40
2022/03/29 07:38:02;;;;;;;;;;;21.40;39.20;;;;;;5073231;28;19924;-45
2022/03/29 07:40:30;;;;;;;;;;;21.40;39.20;;;;;;5071701;28;19932;-40
2022/03/29 07:42:58;;;;;;;;;;;21.40;39.20;;;;;;5073191;28;19924;-40
2022/03/29 07:45:25;;;;;;;;;;;21.40;39.10;;;;;;5073057;28;19924;-39
2022/03/29 07:47:55;;;;;;;;;;;21.40;39.10;;;;;;5073250;28;19990;-42
2022/03/29 07:50:43;;;;;;;;;;;21.50;39.10;;;;;;5073586;28;20010;-44
2022/03/29 07:53:09;;;;;;;;;;;21.50;39.10;;;;;;5072995;28;19935;-45
2022/03/29 07:55:39;;;;;;;;;;;21.50;39.00;;;;;;5071881;28;19924;-39
2022/03/29 07:58:12;;;;;;;;;;;21.50;39.10;;;;;;5073209;28;19968;-41
2022/03/29 08:00:40;;;;;;;;;;;21.50;39.10;;;;;;5072906;28;20449;-39
2022/03/29 08:03:10;;;;;;;;;;;21.50;39.10;;;;;;5072842;28;19960;-40
2022/03/29 08:05:40;;;;;;;;;;;21.50;39.10;;;;;;5073133;28;20291;-43
2022/03/29 08:08:07;;;;;;;;;;;21.50;39.10;;;;;;5073142;28;19932;-40
2022/03/29 08:10:33;;;;;;;;;;;21.50;39.10;;;;;;5071502;28;19970;-40
2022/03/29 08:13:04;;;;;;;;;;;21.50;39.10;;;;;;5073194;28;19924;-40
2022/03/29 08:15:32;;;;;;;;;;;21.50;39.10;;;;;;5073190;28;19980;-44
2022/03/29 08:18:05;;;;;;;;;;;21.50;39.00;;;;;;5073083;28;19925;-39
2022/03/29 08:20:32;;;;;;;;;;;21.50;39.00;;;;;;5072820;28;19925;-42
2022/03/29 08:23:00;;;;;;;;;;;21.50;39.00;;;;;;5072658;28;19932;-41
2022/03/29 08:25:31;;;;;;;;;;;21.50;39.00;;;;;;5071124;28;19925;-39
2022/03/29 08:28:00;;;;;;;;;;;21.50;39.00;;;;;;5074761;28;20334;-43
2022/03/29 08:30:27;;;;;;;;;;;21.50;39.00;;;;;;5076254;28;20330;-42
2022/03/29 08:32:54;;;;;;;;;;;21.50;38.90;;;;;;5076641;28;19924;-43
2022/03/29 08:35:27;;;;;;;;;;;21.50;38.90;;;;;;5076265;28;19924;-39
2022/03/29 08:37:54;;;;;;;;;;;21.60;38.90;;;;;;5076247;28;19925;-38
2022/03/29 08:40:43;;;;;;;;;;;21.60;38.80;;;;;;5059883;28;21023;-41
2022/03/29 08:43:11;;;;;;;;;;;21.60;38.80;;;;;;5076415;28;19925;-39
2022/03/29 08:45:39;;;;;;;;;;;21.60;38.80;;;;;;5076061;28;19951;-43
2022/03/29 08:48:07;;;;;;;;;;;21.60;38.80;;;;;;5076269;28;19935;-40
2022/03/29 08:50:36;;;;;;;;;;;21.60;38.80;;;;;;5076052;28;19970;-44
2022/03/29 08:53:03;;;;;;;;;;;21.60;39.40;;;;;;5075903;28;19924;-40
2022/03/29 08:55:31;;;;;;;;;;;21.60;38.80;;;;;;5075218;28;19928;-39
2022/03/29 08:57:58;;;;;;;;;;;21.60;38.80;;;;;;5075182;28;19931;-40
2022/03/29 09:00:26;;;;;;;;;;;21.60;38.80;;;;;;5076120;28;19998;-43
2022/03/29 09:02:53;;;;;;;;;;;21.60;38.70;;;;;;5075667;28;19974;-41
2022/03/29 09:05:21;;;;;;;;;;;21.60;38.70;;;;;;5076013;28;19970;-43
2022/03/29 09:07:50;;;;;;;;;;;21.60;38.80;;;;;;5075911;28;20338;-44
2022/03/29 09:10:18;;;;;;;;;;;21.60;38.70;;;;;;5075919;28;19924;-45
2022/03/29 09:12:45;;;;;;;;;;;21.60;38.70;;;;;;5058041;28;19925;-40
2022/03/29 09:15:13;;;;;;;;;;;21.60;38.70;;;;;;5055404;28;19925;-40
2022/03/29 09:17:41;;;;;;;;;;;21.60;38.70;;;;;;5055680;28;19932;-45
2022/03/29 09:20:10;;;;;;;;;;;21.60;38.60;;;;;;5055268;28;19955;-42
2022/03/29 09:22:41;;;;;;;;;;;21.70;38.70;;;;;;5054981;28;19931;-44
2022/03/29 09:25:12;;;;;;;;;;;21.70;38.70;;;;;;5055588;28;20363;-46
2022/03/29 09:27:49;;;;;;;;;;;21.70;38.60;;;;;;5068975;28;19928;-42
2022/03/29 09:30:16;;;;;;;;;;;21.70;38.60;;;;;;5075188;28;19928;-44
2022/03/29 09:32:58;;;;;;;;;;;21.70;38.60;;;;;;5075116;28;19974;-41
2022/03/29 09:35:25;;;;;;;;;;;21.70;38.60;;;;;;5075341;28;19970;-44
2022/03/29 09:37:52;;;;;;;;;;;21.70;38.60;;;;;;5074869;28;19977;-43
2022/03/29 09:40:19;;;;;;;;;;;21.70;38.60;;;;;;5073809;28;19955;-42
2022/03/29 09:42:59;;;;;;;;;;;21.70;38.60;;;;;;5073601;28;19931;-40
2022/03/29 09:45:40;;;;;;;;;;;21.70;38.60;;;;;;5074900;28;19990;-39
2022/03/29 09:48:20;;;;;;;;;;;21.70;38.60;;;;;;5075675;28;19928;-43
2022/03/29 09:50:49;;;;;;;;;;;21.70;38.60;;;;;;5075610;28;19932;-39
2022/03/29 09:53:34;;;;;;;;;;;21.70;38.60;;;;;;5075008;28;19931;-40
2022/03/29 09:56:01;;;;;;;;;;;21.70;38.60;;;;;;5074953;28;19960;-42
2022/03/29 09:58:28;;;;;;;;;;;21.70;38.60;;;;;;5072924;28;19932;-39
2022/03/29 10:00:56;;;;;;;;;;;21.70;38.60;;;;;;5074727;28;20388;-43
2022/03/29 10:03:26;;;;;;;;;;;21.70;38.60;;;;;;5056836;28;19925;-40
2022/03/29 10:06:01;;;;;;;;;;;21.80;38.60;;;;;;5074538;28;19960;-40
2022/03/29 10:11:19;;;;;;;;;;;21.80;38.60;;;;;;5073959;28;19925;-45
2022/03/29 10:13:46;;;;;;;;;;;21.80;38.60;;;;;;5073882;28;20019;-40
2022/03/29 10:16:16;;;;;;;;;;;21.80;38.60;;;;;;5074802;28;19928;-41
2022/03/29 10:18:44;;;;;;;;;;;21.80;38.60;;;;;;5074219;28;20380;-41
2022/03/29 10:21:13;;;;;;;;;;;21.80;38.60;;;;;;5052561;28;19963;-41
2022/03/29 10:23:42;;;;;;;;;;;21.80;38.60;;;;;;5054522;28;20295;-41
2022/03/29 10:26:10;;;;;;;;;;;21.80;38.60;;;;;;5055001;28;20024;-42
2022/03/29 10:28:37;;;;;;;;;;;21.80;38.60;;;;;;5053010;28;19929;-41
2022/03/29 10:31:24;;;;;;;;;;;21.80;38.60;;;;;;5054330;28;19971;-40
2022/03/29 10:34:08;;;;;;;;;;;21.80;38.50;;;;;;5053898;28;19978;-39
2022/03/29 10:36:55;;;;;;;;;;;21.80;38.50;;;;;;5054267;28;20028;-40
2022/03/29 10:39:22;;;;;;;;;;;21.80;38.60;;;;;;5053842;28;19925;-42
2022/03/29 10:41:50;;;;;;;;;;;21.80;38.60;;;;;;5052276;28;19925;-40
2022/03/29 10:44:17;;;;;;;;;;;21.80;38.60;;;;;;5054534;28;19929;-44
2022/03/29 10:46:48;;;;;;;;;;;21.80;38.60;;;;;;5054126;28;20270;-42
2022/03/29 10:49:23;;;;;;;;;;;21.80;38.60;;;;;;5054062;28;19925;-44
2022/03/29 10:51:52;;;;;;;;;;;21.80;38.50;;;;;;5053225;28;19925;-45
2022/03/29 10:54:25;;;;;;;;;;;21.90;38.60;;;;;;5053601;28;19925;-40
2022/03/29 10:56:57;;;;;;;;;;;21.90;38.60;;;;;;5052229;28;20414;-42
2022/03/29 10:59:24;;;;;;;;;;;21.90;38.60;;;;;;5033633;28;19948;-40
2022/03/29 11:02:08;;;;;;;;;;;21.90;38.60;;;;;;5034006;28;19979;-45
2022/03/29 11:04:35;;;;;;;;;;;21.90;38.60;;;;;;5033414;28;19925;-39
2022/03/29 11:07:05;;;;;;;;;;;21.90;38.60;;;;;;5034237;28;20327;-39
2022/03/29 11:09:34;;;;;;;;;;;21.90;38.60;;;;;;5034090;28;19932;-40
2022/03/29 11:12:03;;;;;;;;;;;21.90;38.60;;;;;;5032935;28;20301;-40
2022/03/29 11:14:30;;;;;;;;;;;21.90;38.50;;;;;;5052824;28;19925;-39
2022/03/29 11:17:08;;;;;;;;;;;21.90;38.40;;;;;;5053489;28;19929;-40
2022/03/29 11:19:39;;;;;;;;;;;21.90;38.40;;;;;;5053169;28;20372;-42
2022/03/29 11:22:24;;;;;;;;;;;21.90;38.40;;;;;;5065151;28;19978;-39
2022/03/29 11:24:53;;;;;;;;;;;21.90;38.30;;;;;;5073474;28;20334;-39
2022/03/29 11:27:21;;;;;;;;;;;21.90;38.30;;;;;;5071888;28;19924;-39
2022/03/29 11:29:49;;;;;;;;;;;21.90;38.20;;;;;;5073268;28;19932;-40
2022/03/29 11:32:17;;;;;;;;;;;21.90;38.10;;;;;;5073552;28;19924;-45
2022/03/29 11:34:44;;;;;;;;;;;21.90;38.10;;;;;;5072995;28;20057;-39
2022/03/29 11:37:29;;;;;;;;;;;21.90;38.10;;;;;;5073191;28;20304;-41
2022/03/29 11:39:57;;;;;;;;;;;21.90;38.00;;;;;;5073965;28;20007;-41
2022/03/29 11:42:40;;;;;;;;;;;21.90;37.90;;;;;;5071719;28;19932;-41
2022/03/29 11:45:07;;;;;;;;;;;21.90;38.40;;;;;;5073627;28;20326;-41
2022/03/29 11:47:34;;;;;;;;;;;21.90;37.70;;;;;;5072706;28;20380;-41
2022/03/29 11:50:01;;;;;;;;;;;21.90;37.70;;;;;;5072961;28;19985;-46
2022/03/29 11:52:35;;;;;;;;;;;21.90;37.60;;;;;;5073011;28;19975;-43
2022/03/29 11:55:14;;;;;;;;;;;21.90;37.60;;;;;;5073763;28;19931;-39
2022/03/29 11:57:41;;;;;;;;;;;21.90;37.50;;;;;;5071466;28;19924;-41
2022/03/29 12:00:20;;;;;;;;;;;21.90;37.30;;;;;;5072830;28;19924;-41
2022/03/29 12:02:47;;;;;;;;;;;21.90;37.30;;;;;;5074678;28;19981;-43
2022/03/29 12:05:24;;;;;;;;;;;21.90;37.30;;;;;;5077008;28;19931;-41
2022/03/29 12:07:59;;;;;;;;;;;21.90;37.40;;;;;;5076475;28;19931;-41
2022/03/29 12:10:27;;;;;;;;;;;21.90;37.40;;;;;;5076689;28;20261;-44
2022/03/29 12:12:54;;;;;;;;;;;21.90;37.30;;;;;;5073711;28;19965;-38
2022/03/29 12:15:22;;;;;;;;;;;21.90;37.30;;;;;;5056672;28;20327;-38
2022/03/29 12:17:50;;;;;;;;;;;21.90;37.30;;;;;;5056291;28;19924;-42
2022/03/29 12:20:32;;;;;;;;;;;21.90;37.30;;;;;;5056571;28;19968;-41
2022/03/29 12:22:59;;;;;;;;;;;21.90;37.30;;;;;;5056275;28;19925;-39
2022/03/29 12:25:26;;;;;;;;;;;21.90;37.30;;;;;;5056388;28;19983;-40
2022/03/29 12:27:53;;;;;;;;;;;21.90;37.30;;;;;;5055763;28;19974;-39
2022/03/29 12:30:20;;;;;;;;;;;21.90;37.40;;;;;;5076311;28;19924;-41
2022/03/29 12:32:47;;;;;;;;;;;21.90;37.40;;;;;;5076362;28;19947;-44
2022/03/29 12:35:18;;;;;;;;;;;21.90;37.40;;;;;;5075972;28;19994;-39
2022/03/29 12:37:48;;;;;;;;;;;21.90;37.40;;;;;;5076946;28;19947;-41
2022/03/29 12:40:15;;;;;;;;;;;21.80;37.30;;;;;;5075968;28;19931;-38
2022/03/29 12:42:42;;;;;;;;;;;21.80;37.30;;;;;;5058050;28;19960;-41
2022/03/29 12:45:09;;;;;;;;;;;21.80;37.30;;;;;;5074308;28;20015;-41
2022/03/29 12:47:37;;;;;;;;;;;21.80;37.20;;;;;;5075966;28;19979;-40
2022/03/29 12:50:05;;;;;;;;;;;21.80;37.10;;;;;;5075646;28;19974;-41
2022/03/29 12:52:40;;;;;;;;;;;21.90;37.30;;;;;;5075692;28;20015;-38
2022/03/29 12:55:08;;;;;;;;;;;21.90;37.30;;;;;;5075610;28;19974;-39
2022/03/29 12:57:39;;;;;;;;;;;21.90;37.30;;;;;;5075537;28;19925;-39
2022/03/29 13:00:09;;;;;;;;;;;21.90;37.30;;;;;;5073998;28;19936;-38
2022/03/29 13:02:40;;;;;;;;;;;21.90;37.30;;;;;;5076303;28;20035;-41
2022/03/29 13:05:08;;;;;;;;;;;21.90;37.30;;;;;;5075841;28;19977;-42
2022/03/29 13:07:41;;;;;;;;;;;21.90;37.30;;;;;;5075562;28;20426;-39
2022/03/29 13:10:25;;;;;;;;;;;21.90;37.20;;;;;;5075893;28;20275;-40
2022/03/29 13:12:54;;;;;;;;;;;21.90;37.30;;;;;;5057786;28;19924;-42
2022/03/29 13:15:36;;;;;;;;;;;22.00;37.40;;;;;;5073573;28;19928;-42
2022/03/29 13:18:04;;;;;;;;;;;22.00;37.30;;;;;;5075770;28;19924;-39
2022/03/29 13:20:36;;;;;;;;;;;22.00;37.30;;;;;;5075414;28;20038;-39
2022/03/29 13:23:03;;;;;;;;;;;22.00;37.30;;;;;;5075306;28;19968;-39
2022/03/29 13:25:34;;;;;;;;;;;22.00;37.20;;;;;;5075217;28;20395;-43
2022/03/29 13:28:01;;;;;;;;;;;22.00;37.20;;;;;;5075773;28;19924;-41
2022/03/29 13:30:30;;;;;;;;;;;22.00;37.10;;;;;;5073698;28;19977;-39
2022/03/29 13:32:57;;;;;;;;;;;22.00;37.10;;;;;;5075162;28;20368;-38
2022/03/29 13:35:24;;;;;;;;;;;22.00;37.10;;;;;;5075029;28;19924;-39
2022/03/29 13:37:52;;;;;;;;;;;22.00;37.10;;;;;;5075057;28;19924;-39
2022/03/29 13:40:18;;;;;;;;;;;22.00;36.90;;;;;;5075026;28;19928;-39
2022/03/29 13:42:45;;;;;;;;;;;22.00;36.90;;;;;;5074878;28;19925;-39
2022/03/29 13:45:12;;;;;;;;;;;22.00;36.90;;;;;;5060049;28;20329;-40
2022/03/29 13:47:41;;;;;;;;;;;22.00;36.90;;;;;;5054860;28;19955;-39
2022/03/29 13:50:08;;;;;;;;;;;22.10;36.90;;;;;;5054861;28;19936;-39
2022/03/29 13:52:35;;;;;;;;;;;22.10;36.90;;;;;;5055152;28;19925;-39
2022/03/29 13:55:02;;;;;;;;;;;22.00;36.80;;;;;;5054914;28;19932;-44
2022/03/29 13:57:29;;;;;;;;;;;22.10;36.90;;;;;;5054526;28;19924;-39
2022/03/29 13:59:56;;;;;;;;;;;22.10;36.90;;;;;;5063709;28;19986;-39
2022/03/29 14:02:23;;;;;;;;;;;22.10;37.10;;;;;;5074856;28;19924;-38
2022/03/29 14:04:51;;;;;;;;;;;22.10;36.80;;;;;;5074736;28;19925;-40
2022/03/29 14:07:18;;;;;;;;;;;22.10;36.80;;;;;;5074423;28;19928;-38
2022/03/29 14:09:45;;;;;;;;;;;22.10;36.80;;;;;;5074746;28;19970;-46
2022/03/29 14:12:12;;;;;;;;;;;22.10;36.90;;;;;;5074394;28;20383;-45
2022/03/29 14:14:39;;;;;;;;;;;22.00;36.80;;;;;;5067875;28;20015;-45
2022/03/29 14:17:06;;;;;;;;;;;22.10;36.80;;;;;;5054266;28;19932;-44
2022/03/29 14:19:33;;;;;;;;;;;22.00;36.80;;;;;;5037031;28;20339;-46
2022/03/29 14:22:00;;;;;;;;;;;22.00;36.80;;;;;;5054008;28;19994;-40
2022/03/29 14:24:27;;;;;;;;;;;22.00;36.80;;;;;;5054153;28;19924;-42
2022/03/29 14:26:55;;;;;;;;;;;22.00;36.90;;;;;;5054192;28;19932;-46
2022/03/29 14:29:23;;;;;;;;;;;22.00;36.90;;;;;;5055630;28;20284;-43
2022/03/29 14:32:10;;;;;;;;;;;22.00;36.90;;;;;;5073963;28;19971;-42
2022/03/29 14:34:38;;;;;;;;;;;22.00;36.90;;;;;;5074205;28;19940;-47